sensor_id;sensor_type;location;lat;lon;timestamp;pressure;altitude;pressure_sealevel;temperature;humidity
41632;BME280;37452;51.938;4.624;2023-05-13T00:01:52;77115.59;;;-142.75;100.00
41632;BME280;37452;51.938;4.624;2023-05-13T00:04:17;77125.44;;;-142.75;100.00
41632;BME280;37452;51.938;4.624;2023-05-13T00:06:42;77123.47;;;-142.75;100.00
41632;BME280;37452;51.938;4.624;2023-05-13T00:09:08;77127.41;;;-142.75;100.00
41632;BME280;37452;51.938;4.624;2023-05-13T00:11:33;77137.25;;;-142.75;100.00
41632;BME280;37452;51.938;4.624;2023-05-13T00:13:59;77131.34;;;-142.75;100.00
41632;BME280;37452;51.938;4.624;2023-05-13T00:16:24;77125.44;;;-142.75;100.00
41632;BME280;37452;51.938;4.624;2023-05-13T00:18:51;77127.41;;;-142.75;100.00
41632;BME280;37452;51.938;4.624;2023-05-13T00:21:16;77137.25;;;-142.75;100.00
41632;BME280;37452;51.938;4.624;2023-05-13T00:23:42;77143.16;;;-142.75;100.00
41632;BME280;37452;51.938;4.624;2023-05-13T00:26:07;77153.00;;;-142.75;100.00
41632;BME280;37452;51.938;4.624;2023-05-13T00:28:32;77151.03;;;-142.75;100.00
41632;BME280;37452;51.938;4.624;2023-05-13T00:30:57;77156.94;;;-142.75;100.00
41632;BME280;37452;51.938;4.624;2023-05-13T00:33:22;77170.72;;;-142.75;100.00
41632;BME280;37452;51.938;4.624;2023-05-13T00:35:48;77164.81;;;-142.75;100.00
41632;BME280;37452;51.938;4.624;2023-05-13T00:38:13;77172.69;;;-142.75;100.00
41632;BME280;37452;51.938;4.624;2023-05-13T00:40:38;77166.78;;;-142.75;100.00
41632;BME280;37452;51.938;4.624;2023-05-13T00:43:04;77164.81;;;-142.75;100.00
41632;BME280;37452;51.938;4.624;2023-05-13T00:45:29;77168.75;;;-142.75;100.00
41632;BME280;37452;51.938;4.624;2023-05-13T00:47:55;77168.75;;;-142.75;100.00
41632;BME280;37452;51.938;4.624;2023-05-13T00:50:20;77172.69;;;-142.75;100.00
41632;BME280;37452;51.938;4.624;2023-05-13T00:52:45;77190.41;;;-142.75;100.00
41632;BME280;37452;51.938;4.624;2023-05-13T00:55:11;77180.56;;;-142.75;100.00
41632;BME280;37452;51.938;4.624;2023-05-13T00:57:37;77184.50;;;-142.75;100.00
41632;BME280;37452;51.938;4.624;2023-05-13T01:00:04;77192.38;;;-142.75;100.00
41632;BME280;37452;51.938;4.624;2023-05-13T01:02:35;77190.41;;;-142.75;100.00
41632;BME280;37452;51.938;4.624;2023-05-13T01:05:06;77200.25;;;-142.75;100.00
41632;BME280;37452;51.938;4.624;2023-05-13T01:10:14;77206.16;;;-142.75;100.00
41632;BME280;37452;51.938;4.624;2023-05-13T01:12:43;77212.06;;;-142.75;100.00
41632;BME280;37452;51.938;4.624;2023-05-13T01:15:11;77206.16;;;-142.75;100.00
41632;BME280;37452;51.938;4.624;2023-05-13T01:17:57;77225.84;;;-142.75;100.00
41632;BME280;37452;51.938;4.624;2023-05-13T01:20:24;77223.88;;;-142.75;100.00
41632;BME280;37452;51.938;4.624;2023-05-13T01:22:50;77231.75;;;-142.75;100.00
41632;BME280;37452;51.938;4.624;2023-05-13T01:25:16;77229.78;;;-142.75;100.00
41632;BME280;37452;51.938;4.624;2023-05-13T01:27:41;77219.94;;;-142.75;100.00
41632;BME280;37452;51.938;4.624;2023-05-13T01:30:06;77216.00;;;-142.75;100.00
41632;BME280;37452;51.938;4.624;2023-05-13T01:32:33;77212.06;;;-142.75;100.00
41632;BME280;37452;51.938;4.624;2023-05-13T01:34:58;77208.13;;;-142.75;100.00
41632;BME280;37452;51.938;4.624;2023-05-13T01:37:24;77212.06;;;-142.75;100.00
41632;BME280;37452;51.938;4.624;2023-05-13T01:39:50;77212.06;;;-142.75;100.00
41632;BME280;37452;51.938;4.624;2023-05-13T01:42:15;77208.13;;;-142.75;100.00
41632;BME280;37452;51.938;4.624;2023-05-13T01:44:40;77208.13;;;-142.75;100.00
41632;BME280;37452;51.938;4.624;2023-05-13T01:47:06;77212.06;;;-142.75;100.00
41632;BME280;37452;51.938;4.624;2023-05-13T01:49:31;77219.94;;;-142.75;100.00
41632;BME280;37452;51.938;4.624;2023-05-13T01:51:56;77212.06;;;-142.75;100.00
41632;BME280;37452;51.938;4.624;2023-05-13T01:54:21;77219.94;;;-142.75;100.00
41632;BME280;37452;51.938;4.624;2023-05-13T01:56:47;77223.88;;;-142.75;100.00
41632;BME280;37452;51.938;4.624;2023-05-13T01:59:12;77243.56;;;-142.75;100.00
41632;BME280;37452;51.938;4.624;2023-05-13T02:01:37;77255.38;;;-142.75;100.00
41632;BME280;37452;51.938;4.624;2023-05-13T02:04:04;77267.19;;;-142.75;100.00
41632;BME280;37452;51.938;4.624;2023-05-13T02:06:29;77263.25;;;-142.75;100.00
41632;BME280;37452;51.938;4.624;2023-05-13T02:08:56;77267.19;;;-142.75;100.00
41632;BME280;37452;51.938;4.624;2023-05-13T02:11:21;77279.00;;;-142.75;100.00
41632;BME280;37452;51.938;4.624;2023-05-13T02:13:46;77279.00;;;-142.75;100.00
41632;BME280;37452;51.938;4.624;2023-05-13T02:16:15;77294.75;;;-142.75;100.00
41632;BME280;37452;51.938;4.624;2023-05-13T02:18:41;77314.44;;;-142.75;100.00
41632;BME280;37452;51.938;4.624;2023-05-13T02:21:06;77322.31;;;-142.75;100.00
41632;BME280;37452;51.938;4.624;2023-05-13T02:23:31;77318.38;;;-142.75;100.00
41632;BME280;37452;51.938;4.624;2023-05-13T02:25:57;77316.41;;;-142.75;100.00
41632;BME280;37452;51.938;4.624;2023-05-13T02:28:22;77332.16;;;-142.75;100.00
41632;BME280;37452;51.938;4.624;2023-05-13T02:30:47;77318.38;;;-142.75;100.00
41632;BME280;37452;51.938;4.624;2023-05-13T02:33:12;77340.03;;;-142.75;100.00
41632;BME280;37452;51.938;4.624;2023-05-13T02:35:38;77353.81;;;-142.75;100.00
41632;BME280;37452;51.938;4.624;2023-05-13T02:38:03;77363.66;;;-142.75;100.00
41632;BME280;37452;51.938;4.624;2023-05-13T02:40:28;77379.41;;;-142.75;100.00
41632;BME280;37452;51.938;4.624;2023-05-13T02:42:53;77393.19;;;-142.75;100.00
41632;BME280;37452;51.938;4.624;2023-05-13T02:45:18;77405.00;;;-142.75;100.00
41632;BME280;37452;51.938;4.624;2023-05-13T02:47:44;77416.81;;;-142.75;100.00
41632;BME280;37452;51.938;4.624;2023-05-13T02:50:10;77408.94;;;-142.75;100.00
41632;BME280;37452;51.938;4.624;2023-05-13T02:52:36;77420.75;;;-142.75;100.00
41632;BME280;37452;51.938;4.624;2023-05-13T02:55:03;77412.88;;;-142.75;100.00
41632;BME280;37452;51.938;4.624;2023-05-13T02:57:28;77416.81;;;-142.75;100.00
41632;BME280;37452;51.938;4.624;2023-05-13T02:59:53;77414.84;;;-142.75;100.00
41632;BME280;37452;51.938;4.624;2023-05-13T03:02:18;77418.78;;;-142.75;100.00
41632;BME280;37452;51.938;4.624;2023-05-13T03:04:44;77434.53;;;-142.75;100.00
41632;BME280;37452;51.938;4.624;2023-05-13T03:07:09;77440.44;;;-142.75;100.00
41632;BME280;37452;51.938;4.624;2023-05-13T03:09:34;77440.44;;;-142.75;100.00
41632;BME280;37452;51.938;4.624;2023-05-13T03:12:03;77452.25;;;-142.75;100.00
41632;BME280;37452;51.938;4.624;2023-05-13T03:14:28;77446.34;;;-142.75;100.00
41632;BME280;37452;51.938;4.624;2023-05-13T03:16:54;77464.09;;;-142.75;100.00
41632;BME280;37452;51.938;4.624;2023-05-13T03:19:19;77468.03;;;-142.75;100.00
41632;BME280;37452;51.938;4.624;2023-05-13T03:21:44;77470.00;;;-142.75;100.00
41632;BME280;37452;51.938;4.624;2023-05-13T03:24:09;77466.03;;;-142.75;100.00
41632;BME280;37452;51.938;4.624;2023-05-13T03:26:35;77491.66;;;-142.75;100.00
41632;BME280;37452;51.938;4.624;2023-05-13T03:29:00;77489.69;;;-142.75;100.00
41632;BME280;37452;51.938;4.624;2023-05-13T03:31:26;77491.66;;;-142.75;100.00
41632;BME280;37452;51.938;4.624;2023-05-13T03:33:51;77499.53;;;-142.75;100.00
41632;BME280;37452;51.938;4.624;2023-05-13T03:36:16;77501.50;;;-142.75;100.00
41632;BME280;37452;51.938;4.624;2023-05-13T03:38:41;77497.56;;;-142.75;100.00
41632;BME280;37452;51.938;4.624;2023-05-13T03:41:07;77513.31;;;-142.75;100.00
41632;BME280;37452;51.938;4.624;2023-05-13T03:43:32;77527.09;;;-142.75;100.00
41632;BME280;37452;51.938;4.624;2023-05-13T03:45:57;77531.03;;;-142.75;100.00
41632;BME280;37452;51.938;4.624;2023-05-13T03:48:23;77542.84;;;-142.75;100.00
41632;BME280;37452;51.938;4.624;2023-05-13T03:50:48;77527.09;;;-142.75;100.00
41632;BME280;37452;51.938;4.624;2023-05-13T03:53:14;77536.94;;;-142.75;100.00
41632;BME280;37452;51.938;4.624;2023-05-13T03:55:39;77527.09;;;-142.75;100.00
41632;BME280;37452;51.938;4.624;2023-05-13T03:58:12;77538.91;;;-142.75;100.00
41632;BME280;37452;51.938;4.624;2023-05-13T04:00:38;77556.63;;;-142.75;100.00
41632;BME280;37452;51.938;4.624;2023-05-13T04:03:03;77556.63;;;-142.75;100.00
41632;BME280;37452;51.938;4.624;2023-05-13T04:05:28;77566.47;;;-142.75;100.00
41632;BME280;37452;51.938;4.624;2023-05-13T04:07:53;77564.50;;;-142.75;100.00
41632;BME280;37452;51.938;4.624;2023-05-13T04:10:19;77562.53;;;-142.75;100.00
41632;BME280;37452;51.938;4.624;2023-05-13T04:12:44;77570.41;;;-142.75;100.00
41632;BME280;37452;51.938;4.624;2023-05-13T04:15:09;77578.28;;;-142.75;100.00
41632;BME280;37452;51.938;4.624;2023-05-13T04:17:35;77572.38;;;-142.75;100.00
41632;BME280;37452;51.938;4.624;2023-05-13T04:20:00;77590.09;;;-142.75;100.00
41632;BME280;37452;51.938;4.624;2023-05-13T04:22:25;77584.19;;;-142.75;100.00
41632;BME280;37452;51.938;4.624;2023-05-13T04:24:50;77586.16;;;-142.75;100.00
41632;BME280;37452;51.938;4.624;2023-05-13T04:27:20;77586.16;;;-142.75;100.00
41632;BME280;37452;51.938;4.624;2023-05-13T04:29:45;77586.16;;;-142.75;100.00
41632;BME280;37452;51.938;4.624;2023-05-13T04:32:10;77572.38;;;-142.75;100.00
41632;BME280;37452;51.938;4.624;2023-05-13T04:34:39;77574.34;;;-142.75;100.00
41632;BME280;37452;51.938;4.624;2023-05-13T04:37:04;77580.25;;;-142.75;100.00
41632;BME280;37452;51.938;4.624;2023-05-13T04:39:30;77574.34;;;-142.75;100.00
41632;BME280;37452;51.938;4.624;2023-05-13T04:41:55;77574.34;;;-142.75;100.00
41632;BME280;37452;51.938;4.624;2023-05-13T04:44:20;77572.38;;;-142.75;100.00
41632;BME280;37452;51.938;4.624;2023-05-13T04:46:45;77570.41;;;-142.75;100.00
41632;BME280;37452;51.938;4.624;2023-05-13T04:49:10;77562.53;;;-142.75;100.00
41632;BME280;37452;51.938;4.624;2023-05-13T04:51:36;77544.81;;;-142.75;100.00
41632;BME280;37452;51.938;4.624;2023-05-13T04:54:01;77540.88;;;-142.75;100.00
41632;BME280;37452;51.938;4.624;2023-05-13T04:56:26;77536.94;;;-142.75;100.00
41632;BME280;37452;51.938;4.624;2023-05-13T04:58:51;77521.19;;;-142.75;100.00
41632;BME280;37452;51.938;4.624;2023-05-13T05:01:16;77515.28;;;-142.75;100.00
41632;BME280;37452;51.938;4.624;2023-05-13T05:03:42;77517.25;;;-142.75;100.00
41632;BME280;37452;51.938;4.624;2023-05-13T05:06:07;77515.28;;;-142.75;100.00
41632;BME280;37452;51.938;4.624;2023-05-13T05:08:32;77485.75;;;-142.75;100.00
41632;BME280;37452;51.938;4.624;2023-05-13T05:10:58;77479.84;;;-142.75;100.00
41632;BME280;37452;51.938;4.624;2023-05-13T05:13:23;77477.88;;;-142.75;100.00
41632;BME280;37452;51.938;4.624;2023-05-13T05:15:48;77462.13;;;-142.75;100.00
41632;BME280;37452;51.938;4.624;2023-05-13T05:18:14;77448.34;;;-142.75;100.00
41632;BME280;37452;51.938;4.624;2023-05-13T05:20:39;77416.81;;;-142.75;100.00
41632;BME280;37452;51.938;4.624;2023-05-13T05:23:04;77408.94;;;-142.75;100.00
41632;BME280;37452;51.938;4.624;2023-05-13T05:25:29;77401.06;;;-142.75;100.00
41632;BME280;37452;51.938;4.624;2023-05-13T05:27:55;77391.22;;;-142.75;100.00
41632;BME280;37452;51.938;4.624;2023-05-13T05:30:21;77379.41;;;-142.75;100.00
41632;BME280;37452;51.938;4.624;2023-05-13T05:32:46;77373.50;;;-142.75;100.00
41632;BME280;37452;51.938;4.624;2023-05-13T05:35:11;77359.72;;;-142.75;100.00
41632;BME280;37452;51.938;4.624;2023-05-13T05:37:37;77338.06;;;-142.75;100.00
41632;BME280;37452;51.938;4.624;2023-05-13T05:40:02;77330.19;;;-142.75;100.00
41632;BME280;37452;51.938;4.624;2023-05-13T05:42:28;77326.25;;;-142.75;100.00
41632;BME280;37452;51.938;4.624;2023-05-13T05:44:53;77306.56;;;-142.75;100.00
41632;BME280;37452;51.938;4.624;2023-05-13T05:47:18;77292.78;;;-142.75;100.00
41632;BME280;37452;51.938;4.624;2023-05-13T05:49:43;77290.81;;;-142.75;100.00
41632;BME280;37452;51.938;4.624;2023-05-13T05:52:09;77271.13;;;-142.75;100.00
41632;BME280;37452;51.938;4.624;2023-05-13T05:54:35;77247.50;;;-142.75;100.00
41632;BME280;37452;51.938;4.624;2023-05-13T05:57:00;77235.69;;;-142.75;100.00
41632;BME280;37452;51.938;4.624;2023-05-13T05:59:25;77231.75;;;-142.75;100.00
41632;BME280;37452;51.938;4.624;2023-05-13T06:01:50;77216.00;;;-142.75;100.00
41632;BME280;37452;51.938;4.624;2023-05-13T06:04:16;77219.94;;;-142.75;100.00
41632;BME280;37452;51.938;4.624;2023-05-13T06:06:41;77221.91;;;-142.75;100.00
41632;BME280;37452;51.938;4.624;2023-05-13T06:09:06;77194.34;;;-142.75;100.00
41632;BME280;37452;51.938;4.624;2023-05-13T06:11:32;77184.50;;;-142.75;100.00
41632;BME280;37452;51.938;4.624;2023-05-13T06:13:57;77180.56;;;-142.75;100.00
41632;BME280;37452;51.938;4.624;2023-05-13T06:16:22;77149.06;;;-142.75;100.00
41632;BME280;37452;51.938;4.624;2023-05-13T06:18:48;77129.38;;;-142.75;100.00
41632;BME280;37452;51.938;4.624;2023-05-13T06:21:13;77115.59;;;-142.75;100.00
41632;BME280;37452;51.938;4.624;2023-05-13T06:23:38;77072.28;;;-142.75;100.00
41632;BME280;37452;51.938;4.624;2023-05-13T06:26:03;77060.47;;;-142.75;100.00
41632;BME280;37452;51.938;4.624;2023-05-13T06:28:29;77062.44;;;-142.75;100.00
41632;BME280;37452;51.938;4.624;2023-05-13T06:30:54;77054.56;;;-142.75;100.00
41632;BME280;37452;51.938;4.624;2023-05-13T06:33:19;77030.94;;;-142.75;100.00
41632;BME280;37452;51.938;4.624;2023-05-13T06:35:44;76987.63;;;-142.75;100.00
41632;BME280;37452;51.938;4.624;2023-05-13T06:38:13;76954.16;;;-142.75;100.00
41632;BME280;37452;51.938;4.624;2023-05-13T06:40:41;76950.22;;;-142.75;100.00
41632;BME280;37452;51.938;4.624;2023-05-13T06:43:06;76967.94;;;-142.75;100.00
41632;BME280;37452;51.938;4.624;2023-05-13T06:45:32;76967.94;;;-142.75;100.00
41632;BME280;37452;51.938;4.624;2023-05-13T06:47:57;76960.06;;;-142.75;100.00
41632;BME280;37452;51.938;4.624;2023-05-13T06:50:22;76973.84;;;-142.75;100.00
41632;BME280;37452;51.938;4.624;2023-05-13T06:52:48;76956.13;;;-142.75;100.00
41632;BME280;37452;51.938;4.624;2023-05-13T06:55:13;76956.13;;;-142.75;100.00
41632;BME280;37452;51.938;4.624;2023-05-13T06:57:38;76916.75;;;-142.75;100.00
41632;BME280;37452;51.938;4.624;2023-05-13T07:00:04;76912.81;;;-142.75;100.00
41632;BME280;37452;51.938;4.624;2023-05-13T07:02:29;76916.75;;;-142.75;100.00
41632;BME280;37452;51.938;4.624;2023-05-13T07:04:55;76914.78;;;-142.75;100.00
41632;BME280;37452;51.938;4.624;2023-05-13T07:07:20;76893.13;;;-142.75;100.00
41632;BME280;37452;51.938;4.624;2023-05-13T07:09:45;76895.09;;;-142.75;100.00
41632;BME280;37452;51.938;4.624;2023-05-13T07:12:10;76845.88;;;-142.75;100.00
41632;BME280;37452;51.938;4.624;2023-05-13T07:14:36;76843.91;;;-142.75;100.00
41632;BME280;37452;51.938;4.624;2023-05-13T07:17:01;76820.28;;;-142.75;100.00
41632;BME280;37452;51.938;4.624;2023-05-13T07:19:27;76849.81;;;-142.75;100.00
41632;BME280;37452;51.938;4.624;2023-05-13T07:21:52;76796.69;;;-142.75;100.00
41632;BME280;37452;51.938;4.624;2023-05-13T07:24:18;76784.88;;;-142.75;100.00
41632;BME280;37452;51.938;4.624;2023-05-13T07:26:43;76796.69;;;-142.75;100.00
41632;BME280;37452;51.938;4.624;2023-05-13T07:29:08;76747.47;;;-142.75;100.00
41632;BME280;37452;51.938;4.624;2023-05-13T07:31:33;76739.59;;;-142.75;100.00
41632;BME280;37452;51.938;4.624;2023-05-13T07:33:58;76719.91;;;-142.75;100.00
41632;BME280;37452;51.938;4.624;2023-05-13T07:36:24;76714.00;;;-142.75;100.00
41632;BME280;37452;51.938;4.624;2023-05-13T07:38:49;76696.28;;;-142.75;100.00
41632;BME280;37452;51.938;4.624;2023-05-13T07:41:14;76680.53;;;-142.75;100.00
41632;BME280;37452;51.938;4.624;2023-05-13T07:43:39;76649.03;;;-142.75;100.00
41632;BME280;37452;51.938;4.624;2023-05-13T07:46:05;76656.91;;;-142.75;100.00
41632;BME280;37452;51.938;4.624;2023-05-13T07:48:30;76631.31;;;-142.75;99.04
41632;BME280;37452;51.938;4.624;2023-05-13T07:50:55;76621.47;;;-142.75;97.93
41632;BME280;37452;51.938;4.624;2023-05-13T07:53:21;76613.59;;;-142.75;94.41
41632;BME280;37452;51.938;4.624;2023-05-13T07:55:47;76617.53;;;-142.75;94.20
41632;BME280;37452;51.938;4.624;2023-05-13T07:58:12;76591.94;;;-142.75;93.98
41632;BME280;37452;51.938;4.624;2023-05-13T08:00:37;76562.41;;;-142.75;96.28
41632;BME280;37452;51.938;4.624;2023-05-13T08:03:03;76556.50;;;-142.75;92.44
41632;BME280;37452;51.938;4.624;2023-05-13T08:05:28;76540.75;;;-142.75;90.35
41632;BME280;37452;51.938;4.624;2023-05-13T08:07:53;76519.13;;;-142.75;89.48
41632;BME280;37452;51.938;4.624;2023-05-13T08:10:18;76540.75;;;-142.75;89.30
41632;BME280;37452;51.938;4.624;2023-05-13T08:12:44;76513.22;;;-142.75;90.58
41632;BME280;37452;51.938;4.624;2023-05-13T08:15:14;76473.84;;;-142.75;91.49
41632;BME280;37452;51.938;4.624;2023-05-13T08:17:41;76467.94;;;-142.75;93.38
41632;BME280;37452;51.938;4.624;2023-05-13T08:20:06;76456.13;;;-142.75;91.16
41632;BME280;37452;51.938;4.624;2023-05-13T08:22:31;76432.50;;;-142.75;89.50
41632;BME280;37452;51.938;4.624;2023-05-13T08:24:56;76434.47;;;-142.75;87.68
41632;BME280;37452;51.938;4.624;2023-05-13T08:27:24;76432.50;;;-142.75;89.27
41632;BME280;37452;51.938;4.624;2023-05-13T08:29:50;76424.63;;;-142.75;86.83
41632;BME280;37452;51.938;4.624;2023-05-13T08:32:15;76432.50;;;-142.75;87.53
41632;BME280;37452;51.938;4.624;2023-05-13T08:34:40;76422.66;;;-142.75;87.59
41632;BME280;37452;51.938;4.624;2023-05-13T08:37:06;76424.63;;;-142.75;86.47
41632;BME280;37452;51.938;4.624;2023-05-13T08:39:31;76391.16;;;-142.75;85.06
41632;BME280;37452;51.938;4.624;2023-05-13T08:41:56;76399.03;;;-142.75;85.39
41632;BME280;37452;51.938;4.624;2023-05-13T08:44:22;76393.13;;;-142.75;85.59
41632;BME280;37452;51.938;4.624;2023-05-13T08:46:54;76349.81;;;-142.75;84.12
41632;BME280;37452;51.938;4.624;2023-05-13T08:49:24;76353.78;;;-142.75;82.75
41632;BME280;37452;51.938;4.624;2023-05-13T08:51:49;76341.97;;;-142.75;83.39
41632;BME280;37452;51.938;4.624;2023-05-13T08:54:15;76345.91;;;-142.75;82.82
41632;BME280;37452;51.938;4.624;2023-05-13T08:56:41;76312.44;;;-142.75;85.43
41632;BME280;37452;51.938;4.624;2023-05-13T08:59:06;76318.34;;;-142.75;85.11
41632;BME280;37452;51.938;4.624;2023-05-13T09:01:32;76286.84;;;-142.75;82.72
41632;BME280;37452;51.938;4.624;2023-05-13T09:03:57;76271.09;;;-142.75;83.37
41632;BME280;37452;51.938;4.624;2023-05-13T09:06:25;76269.13;;;-142.75;82.82
41632;BME280;37452;51.938;4.624;2023-05-13T09:08:51;76241.56;;;-142.75;82.12
41632;BME280;37452;51.938;4.624;2023-05-13T09:11:17;76278.97;;;-142.75;80.55
41632;BME280;37452;51.938;4.624;2023-05-13T09:13:42;76259.28;;;-142.75;80.63
41632;BME280;37452;51.938;4.624;2023-05-13T09:16:08;76245.50;;;-142.75;80.96
41632;BME280;37452;51.938;4.624;2023-05-13T09:18:33;76215.97;;;-142.75;81.71
41632;BME280;37452;51.938;4.624;2023-05-13T09:23:43;76200.25;;;-142.75;79.01
41632;BME280;37452;51.938;4.624;2023-05-13T09:26:24;76168.75;;;-142.75;79.66
41632;BME280;37452;51.938;4.624;2023-05-13T09:28:55;76160.88;;;-142.75;78.90
41632;BME280;37452;51.938;4.624;2023-05-13T09:31:35;76178.59;;;-142.75;78.77
41632;BME280;37452;51.938;4.624;2023-05-13T09:34:00;76137.25;;;-142.75;79.83
41632;BME280;37452;51.938;4.624;2023-05-13T09:36:25;76162.84;;;-142.75;77.16
41632;BME280;37452;51.938;4.624;2023-05-13T09:38:51;76164.81;;;-142.75;77.39
41632;BME280;37452;51.938;4.624;2023-05-13T09:41:18;76137.25;;;-142.75;77.98
41632;BME280;37452;51.938;4.624;2023-05-13T09:43:43;76160.88;;;-142.75;77.69
41632;BME280;37452;51.938;4.624;2023-05-13T09:46:08;76156.94;;;-142.75;78.56
41632;BME280;37452;51.938;4.624;2023-05-13T09:48:34;76107.72;;;-142.75;77.13
41632;BME280;37452;51.938;4.624;2023-05-13T09:51:02;76109.69;;;-142.75;79.54
41632;BME280;37452;51.938;4.624;2023-05-13T09:53:27;76156.94;;;-142.75;77.51
41632;BME280;37452;51.938;4.624;2023-05-13T09:55:53;76172.69;;;-142.75;76.78
41632;BME280;37452;51.938;4.624;2023-05-13T09:58:19;76151.03;;;-142.75;78.68
41632;BME280;37452;51.938;4.624;2023-05-13T10:00:45;76172.69;;;-142.75;77.13
41632;BME280;37452;51.938;4.624;2023-05-13T10:03:11;76119.53;;;-142.75;79.31
41632;BME280;37452;51.938;4.624;2023-05-13T10:05:37;76111.66;;;-142.75;77.67
41632;BME280;37452;51.938;4.624;2023-05-13T10:08:02;76113.63;;;-142.75;75.94
41632;BME280;37452;51.938;4.624;2023-05-13T10:10:29;76058.53;;;-142.75;74.57
41632;BME280;37452;51.938;4.624;2023-05-13T10:12:54;76046.72;;;-142.75;75.79
41632;BME280;37452;51.938;4.624;2023-05-13T10:15:20;76056.56;;;-142.75;72.78
41632;BME280;37452;51.938;4.624;2023-05-13T10:17:46;76034.91;;;-142.75;72.67
41632;BME280;37452;51.938;4.624;2023-05-13T10:20:12;76062.47;;;-142.75;71.48
41632;BME280;37452;51.938;4.624;2023-05-13T10:22:38;76090.00;;;-142.75;73.75
41632;BME280;37452;51.938;4.624;2023-05-13T10:25:04;76046.72;;;-142.75;74.35
41632;BME280;37452;51.938;4.624;2023-05-13T10:27:30;76029.00;;;-142.75;73.62
41632;BME280;37452;51.938;4.624;2023-05-13T10:29:56;76017.19;;;-142.75;72.49
41632;BME280;37452;51.938;4.624;2023-05-13T10:32:23;76036.88;;;-142.75;73.16
41632;BME280;37452;51.938;4.624;2023-05-13T10:34:50;76007.34;;;-142.75;71.26
41632;BME280;37452;51.938;4.624;2023-05-13T10:38:03;76013.25;;;-142.75;72.12
41632;BME280;37452;51.938;4.624;2023-05-13T10:40:17;76005.38;;;-142.75;72.29
41632;BME280;37452;51.938;4.624;2023-05-13T10:42:51;75983.72;;;-142.75;74.58
41632;BME280;37452;51.938;4.624;2023-05-13T10:45:18;75952.25;;;-142.75;74.14
41632;BME280;37452;51.938;4.624;2023-05-13T10:47:47;75964.03;;;-142.75;74.09
41632;BME280;37452;51.938;4.624;2023-05-13T10:50:23;75973.88;;;-142.75;75.21
41632;BME280;37452;51.938;4.624;2023-05-13T10:52:48;75975.84;;;-142.75;73.57
41632;BME280;37452;51.938;4.624;2023-05-13T10:55:14;75975.84;;;-142.75;74.45
41632;BME280;37452;51.938;4.624;2023-05-13T10:57:40;75971.91;;;-142.75;73.66
41632;BME280;37452;51.938;4.624;2023-05-13T11:00:14;75958.16;;;-142.75;75.04
41632;BME280;37452;51.938;4.624;2023-05-13T11:02:40;75946.34;;;-142.75;73.06
41632;BME280;37452;51.938;4.624;2023-05-13T11:05:06;75926.66;;;-142.75;74.84
41632;BME280;37452;51.938;4.624;2023-05-13T11:07:31;75914.84;;;-142.75;70.82
41632;BME280;37452;51.938;4.624;2023-05-13T11:10:01;75897.13;;;-142.75;71.84
41632;BME280;37452;51.938;4.624;2023-05-13T11:12:26;75887.28;;;-142.75;70.79
41632;BME280;37452;51.938;4.624;2023-05-13T11:14:54;75905.00;;;-142.75;72.53
41632;BME280;37452;51.938;4.624;2023-05-13T11:17:19;75863.66;;;-142.75;72.36
41632;BME280;37452;51.938;4.624;2023-05-13T11:19:45;75842.03;;;-142.75;71.91
41632;BME280;37452;51.938;4.624;2023-05-13T11:22:14;75881.38;;;-142.75;70.98
41632;BME280;37452;51.938;4.624;2023-05-13T11:24:45;75906.97;;;-142.75;69.01
41632;BME280;37452;51.938;4.624;2023-05-13T11:27:11;75881.38;;;-142.75;69.36
41632;BME280;37452;51.938;4.624;2023-05-13T11:29:37;75847.94;;;-142.75;65.77
41632;BME280;37452;51.938;4.624;2023-05-13T11:32:03;75845.97;;;-142.75;66.01
41632;BME280;37452;51.938;4.624;2023-05-13T11:34:29;75826.28;;;-142.75;66.82
41632;BME280;37452;51.938;4.624;2023-05-13T11:36:56;75893.19;;;-142.75;67.59
41632;BME280;37452;51.938;4.624;2023-05-13T11:39:22;75840.06;;;-142.75;68.91
41632;BME280;37452;51.938;4.624;2023-05-13T11:41:50;75812.50;;;-142.75;68.75
41632;BME280;37452;51.938;4.624;2023-05-13T11:44:19;75814.47;;;-142.75;67.68
41632;BME280;37452;51.938;4.624;2023-05-13T11:46:55;75820.38;;;-142.75;69.58
41632;BME280;37452;51.938;4.624;2023-05-13T11:52:01;75782.97;;;-142.75;66.98
41632;BME280;37452;51.938;4.624;2023-05-13T11:54:27;75804.63;;;-142.75;66.88
41632;BME280;37452;51.938;4.624;2023-05-13T11:56:52;75788.88;;;-142.75;69.21
41632;BME280;37452;51.938;4.624;2023-05-13T11:59:18;75800.69;;;-142.75;68.73
41632;BME280;37452;51.938;4.624;2023-05-13T12:01:44;75786.91;;;-142.75;67.16
41632;BME280;37452;51.938;4.624;2023-05-13T12:04:09;75822.34;;;-142.75;69.78
41632;BME280;37452;51.938;4.624;2023-05-13T12:06:41;75782.97;;;-142.75;66.74
41632;BME280;37452;51.938;4.624;2023-05-13T12:09:06;75796.75;;;-142.75;68.59
41632;BME280;37452;51.938;4.624;2023-05-13T12:11:32;75771.16;;;-142.75;66.66
41632;BME280;37452;51.938;4.624;2023-05-13T12:13:58;75802.66;;;-142.75;67.47
41632;BME280;37452;51.938;4.624;2023-05-13T12:16:23;75779.03;;;-142.75;70.00
41632;BME280;37452;51.938;4.624;2023-05-13T12:18:59;75769.19;;;-142.75;68.73
41632;BME280;37452;51.938;4.624;2023-05-13T12:21:24;75796.75;;;-142.75;66.96
41632;BME280;37452;51.938;4.624;2023-05-13T12:23:49;75777.06;;;-142.75;68.91
41632;BME280;37452;51.938;4.624;2023-05-13T12:26:14;75767.22;;;-142.75;68.34
41632;BME280;37452;51.938;4.624;2023-05-13T12:28:39;75759.38;;;-142.75;67.70
41632;BME280;37452;51.938;4.624;2023-05-13T12:31:05;75773.13;;;-142.75;69.03
41632;BME280;37452;51.938;4.624;2023-05-13T12:33:40;75759.38;;;-142.75;70.86
41632;BME280;37452;51.938;4.624;2023-05-13T12:36:21;75747.56;;;-142.75;71.64